Time;durP1;ratioP1;P1;durP2;ratioP2;P2;SDS_P1;SDS_P2;PMS_P1;PMS_P2;Temp;Humidity;BMP_temperature;BMP_pressure;BME280_temperature;BME280_humidity;BME280_pressure;Samples;Min_cycle;Max_cycle;Signal;HPM_P1;HPM_P2
2023/11/14 01:15:07;;;;;;;35.57;22.73;;;3.30;99.90;;;;;;4670919;30;20638;-85
2023/11/14 01:35:11;;;;;;;31.00;20.87;;;3.10;99.90;;;;;;4727824;29;20199;-89
2023/11/14 02:05:44;;;;;;;34.03;23.50;;;3.60;99.90;;;;;;4657584;29;20958;-87
2023/11/14 02:31:17;;;;;;;41.77;27.13;;;3.90;99.90;;;;;;4815189;29;20290;-87
2023/11/14 02:35:39;;;;;;;41.63;25.87;;;4.00;99.90;;;;;;4753376;29;20654;-87
2023/11/14 02:56:36;;;;;;;39.90;25.90;;;4.10;99.90;;;;;;4843365;28;20198;-88
2023/11/14 03:21:34;;;;;;;36.90;24.90;;;4.50;99.90;;;;;;4801270;29;20633;-88
2023/11/14 03:52:15;;;;;;;44.13;25.47;;;4.70;99.90;;;;;;4771272;29;20312;-86
2023/11/14 04:12:42;;;;;;;35.93;25.17;;;4.80;99.90;;;;;;4706045;29;20317;-87
2023/11/14 04:38:00;;;;;;;41.50;26.87;;;5.30;99.90;;;;;;4743096;29;20206;-85
2023/11/14 05:43:51;;;;;;;38.70;23.63;;;7.30;99.90;;;;;;4882163;28;20384;-86
2023/11/14 06:14:17;;;;;;;40.07;22.87;;;7.50;99.90;;;;;;4818191;29;20752;-87
2023/11/14 06:39:16;;;;;;;36.30;23.20;;;7.90;99.90;;;;;;4674549;29;20594;-84
2023/11/14 06:59:53;;;;;;;31.17;19.60;;;8.40;99.90;;;;;;4792003;29;20362;-89
2023/11/14 07:20:13;;;;;;;27.77;18.23;;;8.80;99.90;;;;;;4710135;29;20689;-87
2023/11/14 07:45:35;;;;;;;21.07;13.90;;;9.30;99.90;;;;;;4823982;29;20225;-87
2023/11/14 08:45:54;;;;;;;16.53;9.10;;;10.00;99.90;;;;;;4649350;30;20245;-87
2023/11/14 09:16:37;;;;;;;11.80;6.20;;;10.40;99.90;;;;;;4675799;29;20525;-87
2023/11/14 09:42:14;;;;;;;12.40;5.10;;;11.00;99.90;;;;;;4769939;29;20602;-87
2023/11/14 10:07:25;;;;;;;12.20;4.87;;;11.40;99.90;;;;;;4689235;30;20463;-86
2023/11/14 10:33:04;;;;;;;9.27;3.73;;;10.70;99.90;;;;;;4714117;29;20238;-88
2023/11/14 10:58:15;;;;;;;9.60;4.30;;;10.90;99.90;;;;;;5849502;23;20235;-87
2023/11/14 11:33:41;;;;;;;6.43;2.73;;;11.90;99.90;;;;;;4817781;29;20218;-87
2023/11/14 11:53:55;;;;;;;6.97;2.60;;;12.40;99.90;;;;;;4726921;29;20218;-84
2023/11/14 12:34:08;;;;;;;5.37;2.90;;;12.90;96.40;;;;;;4635793;29;20790;-84
2023/11/14 12:54:55;;;;;;;7.47;3.83;;;12.80;96.30;;;;;;4569162;30;20229;-84
2023/11/14 13:40:36;;;;;;;10.00;3.30;;;12.30;99.90;;;;;;4767999;29;21037;-84
2023/11/14 14:11:08;;;;;;;12.00;3.83;;;11.40;99.90;;;;;;4782986;29;20216;-82
2023/11/14 14:41:29;;;;;;;8.10;3.43;;;10.80;99.90;;;;;;4774220;29;20658;-79
2023/11/14 15:06:56;;;;;;;9.47;3.90;;;10.50;99.90;;;;;;4809251;29;20340;-85
2023/11/14 15:42:25;;;;;;;12.67;4.83;;;10.00;99.90;;;;;;4864865;29;20468;-84
2023/11/14 16:17:53;;;;;;;9.70;4.50;;;10.00;99.90;;;;;;4891438;29;20200;-89
2023/11/14 16:53:20;;;;;;;9.40;5.50;;;10.30;99.90;;;;;;4786869;29;20251;-85
2023/11/14 17:18:37;;;;;;;10.33;5.60;;;9.90;99.90;;;;;;4783779;29;20217;-86
2023/11/14 17:48:32;;;;;;;12.50;5.93;;;9.70;99.90;;;;;;4810568;29;20505;-84
2023/11/14 18:09:03;;;;;;;12.87;5.53;;;9.90;99.90;;;;;;4794353;29;20240;-80
2023/11/14 18:29:26;;;;;;;16.57;7.37;;;9.70;99.90;;;;;;4730834;29;20513;-83
2023/11/14 18:50:03;;;;;;;11.53;6.67;;;9.70;99.90;;;;;;4740589;29;20228;-81
2023/11/14 19:15:05;;;;;;;12.50;6.10;;;10.20;99.90;;;;;;5902675;23;21166;-86
2023/11/14 19:29:57;;;;;;;12.20;6.43;;;10.30;99.90;;;;;;4910249;28;20486;-84
2023/11/14 19:55:43;;;;;;;15.13;5.40;;;10.70;99.90;;;;;;4912371;28;20219;-83
2023/11/14 20:30:41;;;;;;;10.57;4.73;;;11.00;99.90;;;;;;4837820;29;20616;-85
2023/11/14 20:56:38;;;;;;;10.17;5.03;;;11.00;99.90;;;;;;4707152;30;20212;-86
2023/11/14 21:26:42;;;;;;;8.47;4.30;;;11.20;99.90;;;;;;4692373;30;20650;-86
2023/11/14 21:47:09;;;;;;;11.40;4.70;;;11.00;99.90;;;;;;4801095;29;20191;-86
2023/11/14 22:17:42;;;;;;;13.47;5.20;;;11.10;99.90;;;;;;4707335;30;20600;-84
2023/11/14 22:48:07;;;;;;;11.47;5.40;;;11.20;99.90;;;;;;4780600;29;20203;-84
2023/11/14 23:18:28;;;;;;;12.40;5.67;;;11.00;99.90;;;;;;4736744;29;20636;-86
2023/11/14 23:43:39;;;;;;;9.47;5.00;;;10.90;99.90;;;;;;4758398;29;20718;-84
